sensor_id;sensor_type;location;lat;lon;timestamp;P1;durP1;ratioP1;P2;durP2;ratioP2
48361;SDS011;34510;51.888;5.670;2022-08-23T00:01:37;9.65;;;4.57;;
48361;SDS011;34510;51.888;5.670;2022-08-23T00:06:40;7.32;;;3.80;;
48361;SDS011;34510;51.888;5.670;2022-08-23T00:11:44;13.93;;;5.50;;
48361;SDS011;34510;51.888;5.670;2022-08-23T00:16:51;15.82;;;6.60;;
48361;SDS011;34510;51.888;5.670;2022-08-23T00:21:54;10.57;;;6.00;;
48361;SDS011;34510;51.888;5.670;2022-08-23T00:32:00;10.48;;;5.72;;
48361;SDS011;34510;51.888;5.670;2022-08-23T00:37:03;9.27;;;5.10;;
48361;SDS011;34510;51.888;5.670;2022-08-23T00:42:10;13.48;;;4.82;;
48361;SDS011;34510;51.888;5.670;2022-08-23T00:47:32;7.88;;;5.07;;
48361;SDS011;34510;51.888;5.670;2022-08-23T00:52:43;9.23;;;5.47;;
48361;SDS011;34510;51.888;5.670;2022-08-23T00:57:51;14.95;;;5.45;;
48361;SDS011;34510;51.888;5.670;2022-08-23T01:02:53;8.65;;;4.82;;
48361;SDS011;34510;51.888;5.670;2022-08-23T01:07:56;16.20;;;7.40;;
48361;SDS011;34510;51.888;5.670;2022-08-23T01:13:20;13.73;;;6.45;;
48361;SDS011;34510;51.888;5.670;2022-08-23T01:18:25;17.92;;;6.60;;
48361;SDS011;34510;51.888;5.670;2022-08-23T01:23:33;15.90;;;5.93;;
48361;SDS011;34510;51.888;5.670;2022-08-23T01:28:40;13.05;;;5.72;;
48361;SDS011;34510;51.888;5.670;2022-08-23T01:33:47;9.68;;;5.35;;
48361;SDS011;34510;51.888;5.670;2022-08-23T01:38:53;12.48;;;6.82;;
48361;SDS011;34510;51.888;5.670;2022-08-23T01:43:55;18.33;;;7.55;;
48361;SDS011;34510;51.888;5.670;2022-08-23T01:49:02;14.20;;;6.80;;
48361;SDS011;34510;51.888;5.670;2022-08-23T01:54:09;10.07;;;7.00;;
48361;SDS011;34510;51.888;5.670;2022-08-23T01:59:11;10.13;;;6.93;;
48361;SDS011;34510;51.888;5.670;2022-08-23T02:04:19;18.45;;;9.32;;
48361;SDS011;34510;51.888;5.670;2022-08-23T02:09:22;14.85;;;8.07;;
48361;SDS011;34510;51.888;5.670;2022-08-23T02:14:28;11.50;;;7.47;;
48361;SDS011;34510;51.888;5.670;2022-08-23T02:19:34;13.30;;;8.13;;
48361;SDS011;34510;51.888;5.670;2022-08-23T02:24:41;14.02;;;6.88;;
48361;SDS011;34510;51.888;5.670;2022-08-23T02:29:45;20.40;;;7.82;;
48361;SDS011;34510;51.888;5.670;2022-08-23T02:34:48;17.75;;;7.93;;
48361;SDS011;34510;51.888;5.670;2022-08-23T02:40:05;13.98;;;8.18;;
48361;SDS011;34510;51.888;5.670;2022-08-23T02:45:07;15.35;;;8.60;;
48361;SDS011;34510;51.888;5.670;2022-08-23T02:50:15;14.90;;;8.13;;
48361;SDS011;34510;51.888;5.670;2022-08-23T02:55:18;13.65;;;8.85;;
48361;SDS011;34510;51.888;5.670;2022-08-23T03:00:20;17.27;;;8.85;;
48361;SDS011;34510;51.888;5.670;2022-08-23T03:05:23;20.90;;;9.68;;
48361;SDS011;34510;51.888;5.670;2022-08-23T03:10:25;14.90;;;9.45;;
48361;SDS011;34510;51.888;5.670;2022-08-23T03:15:33;15.55;;;8.35;;
48361;SDS011;34510;51.888;5.670;2022-08-23T03:20:35;16.05;;;9.23;;
48361;SDS011;34510;51.888;5.670;2022-08-23T03:25:36;18.95;;;9.05;;
48361;SDS011;34510;51.888;5.670;2022-08-23T03:30:52;11.95;;;8.07;;
48361;SDS011;34510;51.888;5.670;2022-08-23T03:35:58;18.67;;;8.98;;
48361;SDS011;34510;51.888;5.670;2022-08-23T03:41:05;14.13;;;8.85;;
48361;SDS011;34510;51.888;5.670;2022-08-23T03:46:09;21.50;;;8.85;;
48361;SDS011;34510;51.888;5.670;2022-08-23T03:51:26;13.63;;;8.75;;
48361;SDS011;34510;51.888;5.670;2022-08-23T03:56:36;20.80;;;8.77;;
48361;SDS011;34510;51.888;5.670;2022-08-23T04:01:40;24.30;;;10.45;;
48361;SDS011;34510;51.888;5.670;2022-08-23T04:06:42;16.85;;;10.68;;
48361;SDS011;34510;51.888;5.670;2022-08-23T04:11:45;20.50;;;11.43;;
48361;SDS011;34510;51.888;5.670;2022-08-23T04:16:47;11.55;;;10.35;;
48361;SDS011;34510;51.888;5.670;2022-08-23T04:21:49;15.25;;;10.15;;
48361;SDS011;34510;51.888;5.670;2022-08-23T04:26:52;20.88;;;10.85;;
48361;SDS011;34510;51.888;5.670;2022-08-23T04:31:54;17.02;;;12.00;;
48361;SDS011;34510;51.888;5.670;2022-08-23T04:36:56;18.33;;;11.55;;
48361;SDS011;34510;51.888;5.670;2022-08-23T04:41:59;28.45;;;11.25;;
48361;SDS011;34510;51.888;5.670;2022-08-23T04:47:22;26.35;;;15.98;;
48361;SDS011;34510;51.888;5.670;2022-08-23T04:52:26;21.50;;;12.90;;
48361;SDS011;34510;51.888;5.670;2022-08-23T04:57:29;17.23;;;12.40;;
48361;SDS011;34510;51.888;5.670;2022-08-23T05:02:32;19.88;;;14.02;;
48361;SDS011;34510;51.888;5.670;2022-08-23T05:07:35;27.10;;;14.52;;
48361;SDS011;34510;51.888;5.670;2022-08-23T05:12:44;22.27;;;14.57;;
48361;SDS011;34510;51.888;5.670;2022-08-23T05:18:03;28.35;;;14.10;;
48361;SDS011;34510;51.888;5.670;2022-08-23T05:23:07;20.88;;;14.02;;
48361;SDS011;34510;51.888;5.670;2022-08-23T05:33:21;24.73;;;13.30;;
48361;SDS011;34510;51.888;5.670;2022-08-23T05:38:23;19.55;;;13.43;;
48361;SDS011;34510;51.888;5.670;2022-08-23T05:43:27;25.65;;;13.63;;
48361;SDS011;34510;51.888;5.670;2022-08-23T05:48:31;18.25;;;14.18;;
48361;SDS011;34510;51.888;5.670;2022-08-23T05:53:37;21.63;;;13.60;;
48361;SDS011;34510;51.888;5.670;2022-08-23T05:58:41;31.40;;;13.80;;
48361;SDS011;34510;51.888;5.670;2022-08-23T06:03:43;25.50;;;13.95;;
48361;SDS011;34510;51.888;5.670;2022-08-23T06:08:45;23.60;;;15.63;;
48361;SDS011;34510;51.888;5.670;2022-08-23T06:13:50;21.70;;;14.77;;
48361;SDS011;34510;51.888;5.670;2022-08-23T06:18:54;23.38;;;14.23;;
48361;SDS011;34510;51.888;5.670;2022-08-23T06:24:18;23.25;;;15.85;;
48361;SDS011;34510;51.888;5.670;2022-08-23T06:29:26;25.83;;;15.00;;
48361;SDS011;34510;51.888;5.670;2022-08-23T06:34:46;21.95;;;15.13;;
48361;SDS011;34510;51.888;5.670;2022-08-23T06:39:57;16.95;;;12.43;;
48361;SDS011;34510;51.888;5.670;2022-08-23T06:45:18;18.75;;;13.63;;
48361;SDS011;34510;51.888;5.670;2022-08-23T06:50:32;20.02;;;13.85;;
48361;SDS011;34510;51.888;5.670;2022-08-23T06:55:54;30.75;;;14.50;;
48361;SDS011;34510;51.888;5.670;2022-08-23T07:01:20;24.60;;;14.70;;
48361;SDS011;34510;51.888;5.670;2022-08-23T07:06:57;25.35;;;14.50;;
48361;SDS011;34510;51.888;5.670;2022-08-23T07:12:00;23.85;;;13.80;;
48361;SDS011;34510;51.888;5.670;2022-08-23T07:17:04;29.75;;;13.57;;
48361;SDS011;34510;51.888;5.670;2022-08-23T07:22:06;36.88;;;16.75;;
48361;SDS011;34510;51.888;5.670;2022-08-23T07:27:08;26.42;;;13.65;;
48361;SDS011;34510;51.888;5.670;2022-08-23T07:32:24;27.70;;;13.13;;
48361;SDS011;34510;51.888;5.670;2022-08-23T07:37:29;27.75;;;13.63;;
48361;SDS011;34510;51.888;5.670;2022-08-23T07:42:34;26.65;;;14.13;;
48361;SDS011;34510;51.888;5.670;2022-08-23T07:47:36;22.95;;;12.20;;
48361;SDS011;34510;51.888;5.670;2022-08-23T07:52:39;20.25;;;13.02;;
48361;SDS011;34510;51.888;5.670;2022-08-23T07:57:42;16.55;;;11.02;;
48361;SDS011;34510;51.888;5.670;2022-08-23T08:03:10;19.85;;;11.57;;
48361;SDS011;34510;51.888;5.670;2022-08-23T08:08:37;14.30;;;10.30;;
48361;SDS011;34510;51.888;5.670;2022-08-23T08:13:41;16.17;;;10.23;;
48361;SDS011;34510;51.888;5.670;2022-08-23T08:18:45;24.52;;;10.93;;
48361;SDS011;34510;51.888;5.670;2022-08-23T08:24:14;19.10;;;10.43;;
48361;SDS011;34510;51.888;5.670;2022-08-23T08:29:21;20.58;;;10.95;;
48361;SDS011;34510;51.888;5.670;2022-08-23T08:34:24;24.52;;;11.05;;
48361;SDS011;34510;51.888;5.670;2022-08-23T08:39:30;19.25;;;11.02;;
48361;SDS011;34510;51.888;5.670;2022-08-23T08:44:44;18.65;;;11.80;;
48361;SDS011;34510;51.888;5.670;2022-08-23T08:50:00;20.20;;;11.05;;
48361;SDS011;34510;51.888;5.670;2022-08-23T09:00:14;30.20;;;11.85;;
48361;SDS011;34510;51.888;5.670;2022-08-23T09:05:22;17.35;;;9.63;;
48361;SDS011;34510;51.888;5.670;2022-08-23T09:16:10;19.88;;;10.80;;
48361;SDS011;34510;51.888;5.670;2022-08-23T09:21:26;22.98;;;10.93;;
48361;SDS011;34510;51.888;5.670;2022-08-23T09:26:42;20.85;;;11.38;;
48361;SDS011;34510;51.888;5.670;2022-08-23T09:31:46;23.30;;;9.82;;
48361;SDS011;34510;51.888;5.670;2022-08-23T09:37:05;15.95;;;9.65;;
48361;SDS011;34510;51.888;5.670;2022-08-23T09:42:24;18.77;;;9.13;;
48361;SDS011;34510;51.888;5.670;2022-08-23T09:47:35;13.50;;;8.25;;
48361;SDS011;34510;51.888;5.670;2022-08-23T09:52:47;12.93;;;6.97;;
48361;SDS011;34510;51.888;5.670;2022-08-23T09:57:51;23.23;;;6.90;;
48361;SDS011;34510;51.888;5.670;2022-08-23T10:02:58;12.38;;;5.10;;
48361;SDS011;34510;51.888;5.670;2022-08-23T10:08:49;10.15;;;7.45;;
48361;SDS011;34510;51.888;5.670;2022-08-23T10:14:00;12.57;;;6.03;;
48361;SDS011;34510;51.888;5.670;2022-08-23T10:19:18;11.40;;;4.80;;
48361;SDS011;34510;51.888;5.670;2022-08-23T10:29:45;10.90;;;5.20;;
48361;SDS011;34510;51.888;5.670;2022-08-23T10:34:53;7.45;;;4.35;;
48361;SDS011;34510;51.888;5.670;2022-08-23T10:39:58;14.70;;;5.88;;
48361;SDS011;34510;51.888;5.670;2022-08-23T10:45:22;12.10;;;4.70;;
48361;SDS011;34510;51.888;5.670;2022-08-23T10:50:31;23.00;;;6.20;;
48361;SDS011;34510;51.888;5.670;2022-08-23T10:55:56;14.93;;;6.45;;
48361;SDS011;34510;51.888;5.670;2022-08-23T11:01:12;11.05;;;5.75;;
48361;SDS011;34510;51.888;5.670;2022-08-23T11:11:37;12.43;;;5.32;;
48361;SDS011;34510;51.888;5.670;2022-08-23T11:16:44;11.02;;;5.03;;
48361;SDS011;34510;51.888;5.670;2022-08-23T11:21:47;9.10;;;4.70;;
48361;SDS011;34510;51.888;5.670;2022-08-23T11:42:19;9.00;;;3.60;;
48361;SDS011;34510;51.888;5.670;2022-08-23T11:47:25;8.68;;;3.08;;
48361;SDS011;34510;51.888;5.670;2022-08-23T11:53:05;8.65;;;3.70;;
48361;SDS011;34510;51.888;5.670;2022-08-23T11:58:03;18.40;;;4.65;;
48361;SDS011;34510;51.888;5.670;2022-08-23T12:13:54;6.60;;;2.97;;
48361;SDS011;34510;51.888;5.670;2022-08-23T12:19:03;7.65;;;3.65;;
48361;SDS011;34510;51.888;5.670;2022-08-23T12:35:00;7.93;;;2.05;;
48361;SDS011;34510;51.888;5.670;2022-08-23T12:50:23;8.80;;;2.08;;
48361;SDS011;34510;51.888;5.670;2022-08-23T12:55:35;5.47;;;2.40;;
48361;SDS011;34510;51.888;5.670;2022-08-23T13:00:53;6.18;;;2.17;;
48361;SDS011;34510;51.888;5.670;2022-08-23T13:06:08;10.68;;;3.35;;
48361;SDS011;34510;51.888;5.670;2022-08-23T13:11:12;12.90;;;2.40;;
48361;SDS011;34510;51.888;5.670;2022-08-23T13:16:27;9.10;;;2.67;;
48361;SDS011;34510;51.888;5.670;2022-08-23T13:21:33;13.32;;;2.88;;
48361;SDS011;34510;51.888;5.670;2022-08-23T13:26:41;9.00;;;3.08;;
48361;SDS011;34510;51.888;5.670;2022-08-23T13:37:05;2.13;;;1.40;;
48361;SDS011;34510;51.888;5.670;2022-08-23T13:42:34;2.33;;;1.70;;
48361;SDS011;34510;51.888;5.670;2022-08-23T13:47:42;5.78;;;2.10;;
48361;SDS011;34510;51.888;5.670;2022-08-23T13:52:48;4.93;;;1.75;;
48361;SDS011;34510;51.888;5.670;2022-08-23T13:58:23;5.10;;;1.60;;
48361;SDS011;34510;51.888;5.670;2022-08-23T14:03:31;3.35;;;2.00;;
48361;SDS011;34510;51.888;5.670;2022-08-23T14:08:32;7.93;;;1.55;;
48361;SDS011;34510;51.888;5.670;2022-08-23T14:13:34;5.13;;;1.67;;
48361;SDS011;34510;51.888;5.670;2022-08-23T14:18:37;4.90;;;1.75;;
48361;SDS011;34510;51.888;5.670;2022-08-23T14:23:59;6.80;;;1.80;;
48361;SDS011;34510;51.888;5.670;2022-08-23T14:29:01;5.28;;;1.55;;
48361;SDS011;34510;51.888;5.670;2022-08-23T14:34:05;7.88;;;2.05;;
48361;SDS011;34510;51.888;5.670;2022-08-23T14:39:07;8.05;;;1.67;;
48361;SDS011;34510;51.888;5.670;2022-08-23T14:44:15;2.78;;;1.50;;
48361;SDS011;34510;51.888;5.670;2022-08-23T14:49:17;3.83;;;1.70;;
48361;SDS011;34510;51.888;5.670;2022-08-23T14:54:22;8.38;;;1.63;;
48361;SDS011;34510;51.888;5.670;2022-08-23T14:59:25;4.32;;;2.00;;
48361;SDS011;34510;51.888;5.670;2022-08-23T15:04:27;2.47;;;1.63;;
48361;SDS011;34510;51.888;5.670;2022-08-23T15:09:34;5.75;;;1.90;;
48361;SDS011;34510;51.888;5.670;2022-08-23T15:14:36;4.60;;;1.65;;
48361;SDS011;34510;51.888;5.670;2022-08-23T15:19:38;8.80;;;1.58;;
48361;SDS011;34510;51.888;5.670;2022-08-23T15:24:40;6.03;;;2.45;;
48361;SDS011;34510;51.888;5.670;2022-08-23T15:29:42;3.97;;;2.00;;
48361;SDS011;34510;51.888;5.670;2022-08-23T15:34:44;7.63;;;2.33;;
48361;SDS011;34510;51.888;5.670;2022-08-23T15:39:47;8.43;;;2.20;;
48361;SDS011;34510;51.888;5.670;2022-08-23T15:44:49;5.85;;;3.15;;
48361;SDS011;34510;51.888;5.670;2022-08-23T15:49:52;6.53;;;1.55;;
48361;SDS011;34510;51.888;5.670;2022-08-23T15:54:54;6.53;;;1.52;;
48361;SDS011;34510;51.888;5.670;2022-08-23T15:59:56;4.47;;;1.88;;
48361;SDS011;34510;51.888;5.670;2022-08-23T16:04:59;4.63;;;2.03;;
48361;SDS011;34510;51.888;5.670;2022-08-23T16:10:03;8.38;;;2.80;;
48361;SDS011;34510;51.888;5.670;2022-08-23T16:15:07;5.33;;;1.60;;
48361;SDS011;34510;51.888;5.670;2022-08-23T16:20:10;4.43;;;1.85;;
48361;SDS011;34510;51.888;5.670;2022-08-23T16:25:13;4.22;;;1.55;;
48361;SDS011;34510;51.888;5.670;2022-08-23T16:30:16;9.02;;;2.05;;
48361;SDS011;34510;51.888;5.670;2022-08-23T16:35:18;7.07;;;2.30;;
48361;SDS011;34510;51.888;5.670;2022-08-23T16:40:19;9.45;;;2.63;;
48361;SDS011;34510;51.888;5.670;2022-08-23T16:45:22;9.32;;;3.75;;
48361;SDS011;34510;51.888;5.670;2022-08-23T16:50:27;6.35;;;1.95;;
48361;SDS011;34510;51.888;5.670;2022-08-23T16:55:38;4.95;;;1.90;;
48361;SDS011;34510;51.888;5.670;2022-08-23T17:00:40;5.35;;;2.15;;
48361;SDS011;34510;51.888;5.670;2022-08-23T17:05:42;5.30;;;2.63;;
48361;SDS011;34510;51.888;5.670;2022-08-23T17:10:44;4.10;;;1.77;;
48361;SDS011;34510;51.888;5.670;2022-08-23T17:15:48;5.72;;;1.88;;
48361;SDS011;34510;51.888;5.670;2022-08-23T17:20:50;7.72;;;1.92;;
48361;SDS011;34510;51.888;5.670;2022-08-23T17:25:52;2.97;;;1.65;;
48361;SDS011;34510;51.888;5.670;2022-08-23T17:30:54;6.60;;;2.20;;
48361;SDS011;34510;51.888;5.670;2022-08-23T17:35:56;6.80;;;2.03;;
48361;SDS011;34510;51.888;5.670;2022-08-23T17:40:58;6.15;;;2.00;;
48361;SDS011;34510;51.888;5.670;2022-08-23T17:46:00;4.55;;;1.75;;
48361;SDS011;34510;51.888;5.670;2022-08-23T17:51:01;5.88;;;2.22;;
48361;SDS011;34510;51.888;5.670;2022-08-23T17:56:03;7.53;;;2.20;;
48361;SDS011;34510;51.888;5.670;2022-08-23T18:01:12;4.22;;;2.50;;
48361;SDS011;34510;51.888;5.670;2022-08-23T18:06:14;18.45;;;3.33;;
48361;SDS011;34510;51.888;5.670;2022-08-23T18:11:18;11.68;;;3.88;;
48361;SDS011;34510;51.888;5.670;2022-08-23T18:16:19;6.10;;;2.00;;
48361;SDS011;34510;51.888;5.670;2022-08-23T18:21:22;3.78;;;2.33;;
48361;SDS011;34510;51.888;5.670;2022-08-23T18:26:25;5.22;;;2.10;;
48361;SDS011;34510;51.888;5.670;2022-08-23T18:31:46;8.55;;;2.28;;
48361;SDS011;34510;51.888;5.670;2022-08-23T18:36:51;8.48;;;3.05;;
48361;SDS011;34510;51.888;5.670;2022-08-23T18:41:54;4.63;;;2.58;;
48361;SDS011;34510;51.888;5.670;2022-08-23T18:46:56;4.65;;;2.72;;
48361;SDS011;34510;51.888;5.670;2022-08-23T18:51:58;6.70;;;2.60;;
48361;SDS011;34510;51.888;5.670;2022-08-23T18:57:01;7.45;;;2.65;;
48361;SDS011;34510;51.888;5.670;2022-08-23T19:02:04;9.38;;;2.65;;
48361;SDS011;34510;51.888;5.670;2022-08-23T19:07:06;5.65;;;2.30;;
48361;SDS011;34510;51.888;5.670;2022-08-23T19:12:08;12.68;;;2.80;;
48361;SDS011;34510;51.888;5.670;2022-08-23T19:17:10;3.15;;;2.53;;
48361;SDS011;34510;51.888;5.670;2022-08-23T19:22:12;4.50;;;2.90;;
48361;SDS011;34510;51.888;5.670;2022-08-23T19:27:15;5.47;;;3.15;;
48361;SDS011;34510;51.888;5.670;2022-08-23T19:32:28;13.32;;;4.22;;
48361;SDS011;34510;51.888;5.670;2022-08-23T19:37:36;5.75;;;3.88;;
48361;SDS011;34510;51.888;5.670;2022-08-23T19:42:39;8.52;;;4.57;;
48361;SDS011;34510;51.888;5.670;2022-08-23T19:47:40;7.82;;;5.45;;
48361;SDS011;34510;51.888;5.670;2022-08-23T19:52:43;15.10;;;7.10;;
48361;SDS011;34510;51.888;5.670;2022-08-23T19:57:45;20.65;;;8.73;;
48361;SDS011;34510;51.888;5.670;2022-08-23T20:02:47;19.88;;;9.48;;
48361;SDS011;34510;51.888;5.670;2022-08-23T20:07:48;16.23;;;10.60;;
48361;SDS011;34510;51.888;5.670;2022-08-23T20:12:50;18.13;;;11.38;;
48361;SDS011;34510;51.888;5.670;2022-08-23T20:17:52;20.92;;;12.20;;
48361;SDS011;34510;51.888;5.670;2022-08-23T20:22:54;22.27;;;12.50;;
48361;SDS011;34510;51.888;5.670;2022-08-23T20:28:14;20.08;;;13.15;;
48361;SDS011;34510;51.888;5.670;2022-08-23T20:33:15;20.42;;;12.73;;
48361;SDS011;34510;51.888;5.670;2022-08-23T20:38:17;28.73;;;15.88;;
48361;SDS011;34510;51.888;5.670;2022-08-23T20:43:34;28.70;;;14.68;;
48361;SDS011;34510;51.888;5.670;2022-08-23T20:48:39;21.85;;;14.10;;
48361;SDS011;34510;51.888;5.670;2022-08-23T20:53:42;25.30;;;13.93;;
48361;SDS011;34510;51.888;5.670;2022-08-23T20:58:44;22.83;;;13.68;;
48361;SDS011;34510;51.888;5.670;2022-08-23T21:03:47;24.73;;;14.35;;
48361;SDS011;34510;51.888;5.670;2022-08-23T21:08:49;24.33;;;13.43;;
48361;SDS011;34510;51.888;5.670;2022-08-23T21:13:54;29.83;;;13.50;;
48361;SDS011;34510;51.888;5.670;2022-08-23T21:18:57;19.40;;;13.13;;
48361;SDS011;34510;51.888;5.670;2022-08-23T21:23:59;21.50;;;12.85;;
48361;SDS011;34510;51.888;5.670;2022-08-23T21:29:01;19.52;;;11.77;;
48361;SDS011;34510;51.888;5.670;2022-08-23T21:34:04;19.75;;;11.02;;
48361;SDS011;34510;51.888;5.670;2022-08-23T21:39:07;14.90;;;11.63;;
48361;SDS011;34510;51.888;5.670;2022-08-23T21:44:11;20.30;;;12.13;;
48361;SDS011;34510;51.888;5.670;2022-08-23T21:49:15;21.13;;;11.32;;
48361;SDS011;34510;51.888;5.670;2022-08-23T21:54:17;18.35;;;12.05;;
48361;SDS011;34510;51.888;5.670;2022-08-23T21:59:20;19.42;;;11.75;;
48361;SDS011;34510;51.888;5.670;2022-08-23T22:04:22;19.48;;;11.80;;
48361;SDS011;34510;51.888;5.670;2022-08-23T22:09:24;15.73;;;11.20;;
48361;SDS011;34510;51.888;5.670;2022-08-23T22:14:32;23.25;;;12.07;;
48361;SDS011;34510;51.888;5.670;2022-08-23T22:19:34;22.80;;;13.23;;
48361;SDS011;34510;51.888;5.670;2022-08-23T22:24:35;20.80;;;12.25;;
48361;SDS011;34510;51.888;5.670;2022-08-23T22:29:38;25.50;;;12.50;;
48361;SDS011;34510;51.888;5.670;2022-08-23T22:34:41;19.40;;;12.13;;
48361;SDS011;34510;51.888;5.670;2022-08-23T22:39:43;16.55;;;13.45;;
48361;SDS011;34510;51.888;5.670;2022-08-23T22:44:46;19.42;;;11.98;;
48361;SDS011;34510;51.888;5.670;2022-08-23T22:49:48;19.98;;;12.23;;
48361;SDS011;34510;51.888;5.670;2022-08-23T22:54:49;20.60;;;14.15;;
48361;SDS011;34510;51.888;5.670;2022-08-23T22:59:51;22.40;;;12.68;;
48361;SDS011;34510;51.888;5.670;2022-08-23T23:04:55;30.35;;;16.15;;
48361;SDS011;34510;51.888;5.670;2022-08-23T23:09:57;17.42;;;11.57;;
48361;SDS011;34510;51.888;5.670;2022-08-23T23:14:59;17.17;;;12.45;;
48361;SDS011;34510;51.888;5.670;2022-08-23T23:20:01;18.38;;;12.00;;
48361;SDS011;34510;51.888;5.670;2022-08-23T23:25:21;24.58;;;15.45;;
48361;SDS011;34510;51.888;5.670;2022-08-23T23:30:23;21.92;;;16.00;;
48361;SDS011;34510;51.888;5.670;2022-08-23T23:35:25;27.85;;;15.68;;
48361;SDS011;34510;51.888;5.670;2022-08-23T23:40:28;28.65;;;17.83;;
48361;SDS011;34510;51.888;5.670;2022-08-23T23:45:30;27.17;;;20.38;;
48361;SDS011;34510;51.888;5.670;2022-08-23T23:50:32;35.17;;;22.05;;
48361;SDS011;34510;51.888;5.670;2022-08-23T23:55:34;28.27;;;21.48;;
